Lady A — 2ISW7 — position and weather

sailwx.info

Track history (hours):
 
Tides and Currents Weather Stations Pressure Air Temp Water Temp Dewpoint Dewpoint Depression Visibility Wind Speed Wind Dir Waves Ship Positions

Lady A

Last reported at 2017-Sep-21 14:17 UTC. Time now 2017-Sep-24 05:13 UTC.
Position N 43°33' E 007°04'.

Length 55 m; draft 4.2 m.

Type: Ship. MMSI: 235112535.

Date/timePositionNaut miles runAvg speedWind from/ knotsBaromVisibWave heightAir tempDewpointWater temp
2017-Sep-21 14:17N 43°33' E 007°04'  
2017-Sep-17 08:09N 43°33' E 007°04'1 7.6
2017-Sep-17 08:00N 43°32' E 007°03'0 0.2
2017-Sep-17 07:24N 43°32' E 007°03'0 0.0
2017-Sep-17 06:57N 43°32' E 007°03'0 0.1
2017-Sep-17 06:30N 43°32' E 007°03'0 0.1
2017-Sep-17 06:00N 43°32' E 007°03'0 0.0
2017-Sep-17 05:30N 43°32' E 007°03'0 0.0
2017-Sep-17 04:57N 43°32' E 007°03'0 0.0
2017-Sep-17 04:30N 43°32' E 007°03'0 0.0
2017-Sep-17 04:00N 43°32' E 007°03'0 0.0
2017-Sep-17 03:30N 43°32' E 007°03'0 0.1
2017-Sep-17 03:00N 43°32' E 007°03'0 0.1
2017-Sep-17 02:30N 43°32' E 007°03'0 0.0
2017-Sep-17 02:00N 43°32' E 007°03'0 0.0
2017-Sep-17 01:30N 43°32' E 007°03'0 0.1
2017-Sep-17 01:00N 43°32' E 007°03'0 0.1
2017-Sep-17 00:30N 43°32' E 007°03'0 0.0
2017-Sep-17 00:00N 43°32' E 007°03'0 0.1
2017-Sep-16 23:30N 43°32' E 007°03'0 0.0
2017-Sep-16 23:00N 43°32' E 007°03'0 0.0
2017-Sep-16 22:30N 43°32' E 007°03'0 0.0
2017-Sep-16 22:00N 43°32' E 007°03'0 0.0
2017-Sep-16 21:30N 43°32' E 007°03'0 0.0
2017-Sep-16 21:00N 43°32' E 007°03'0 0.0
2017-Sep-16 20:30N 43°32' E 007°03'0 0.0
2017-Sep-16 20:00N 43°32' E 007°03'0 0.1
2017-Sep-16 19:27N 43°32' E 007°03'0 0.0
2017-Sep-16 18:54N 43°32' E 007°03'0 0.0
2017-Sep-16 18:24N 43°32' E 007°03'0 0.1
2017-Sep-16 17:54N 43°32' E 007°03'0 0.0
2017-Sep-16 17:24N 43°32' E 007°03'0 0.0
2017-Sep-16 16:57N 43°32' E 007°03'0 0.0
2017-Sep-16 16:27N 43°32' E 007°03'0 0.0
2017-Sep-16 15:57N 43°32' E 007°03'0 0.0
2017-Sep-16 15:27N 43°32' E 007°03'0 0.1
2017-Sep-16 14:57N 43°32' E 007°03'0 0.2
2017-Sep-16 14:30N 43°32' E 007°03'3 2.2
2017-Sep-16 13:14N 43°34' E 007°06'0 0.0
2017-Sep-15 16:45N 43°33' E 007°06'2 8.9
2017-Sep-15 16:30N 43°32' E 007°03'0 0.4
2017-Sep-15 15:55N 43°32' E 007°03'0 0.0
2017-Sep-15 15:25N 43°32' E 007°03'0 0.0
2017-Sep-15 14:58N 43°32' E 007°03'0 0.0
2017-Sep-15 14:28N 43°32' E 007°03'0 0.0
2017-Sep-15 13:58N 43°32' E 007°03'0 0.1
2017-Sep-15 13:28N 43°32' E 007°03'0 0.1
2017-Sep-15 12:58N 43°32' E 007°03'0 0.0
2017-Sep-15 12:28N 43°32' E 007°03'0 0.0
2017-Sep-15 11:58N 43°32' E 007°03'0 0.0
2017-Sep-15 11:28N 43°32' E 007°03'0 0.0
2017-Sep-15 10:58N 43°32' E 007°03'0 0.0
2017-Sep-15 10:28N 43°32' E 007°03'0 0.0
2017-Sep-15 09:58N 43°32' E 007°03'0 0.0
2017-Sep-15 09:28N 43°32' E 007°03'0 0.0
2017-Sep-15 08:58N 43°32' E 007°03'0 0.0
2017-Sep-15 08:28N 43°32' E 007°03'0 0.0
2017-Sep-15 07:58N 43°32' E 007°03'0 0.0
2017-Sep-15 07:28N 43°32' E 007°03'0 0.1
2017-Sep-15 06:58N 43°32' E 007°03'0 0.0
2017-Sep-15 06:25N 43°32' E 007°03'0 0.0
2017-Sep-15 05:52N 43°32' E 007°03'0 0.0
2017-Sep-15 05:28N 43°32' E 007°03'0 0.0
2017-Sep-15 04:55N 43°32' E 007°03'0 0.0
2017-Sep-15 04:28N 43°32' E 007°03'0 0.0
2017-Sep-15 03:52N 43°32' E 007°03'0 0.0
2017-Sep-15 03:28N 43°32' E 007°03'0 0.0
2017-Sep-15 02:58N 43°32' E 007°03'0 0.0
2017-Sep-15 02:22N 43°32' E 007°03'0 0.0
2017-Sep-15 01:58N 43°32' E 007°03'0 0.0
2017-Sep-15 01:25N 43°32' E 007°03'0 0.1
2017-Sep-15 00:58N 43°32' E 007°03'0 0.0
2017-Sep-15 00:25N 43°32' E 007°03'0 0.0
2017-Sep-14 23:58N 43°32' E 007°03'0 0.0
2017-Sep-14 23:28N 43°32' E 007°03'0 0.0
2017-Sep-14 22:58N 43°32' E 007°03'0 0.0
2017-Sep-14 22:28N 43°32' E 007°03'0 0.0
2017-Sep-14 21:58N 43°32' E 007°03'0 0.0
2017-Sep-14 21:28N 43°32' E 007°03'0 0.0
2017-Sep-14 20:58N 43°32' E 007°03'0 0.0
2017-Sep-14 20:28N 43°32' E 007°03'0 0.0
2017-Sep-14 19:58N 43°32' E 007°03'0 0.1
2017-Sep-14 19:28N 43°32' E 007°03'0 0.0
2017-Sep-14 18:58N 43°32' E 007°03'0 0.0
2017-Sep-14 18:28N 43°32' E 007°03'0 0.0
2017-Sep-14 17:58N 43°32' E 007°03'0 0.1
2017-Sep-14 17:22N 43°32' E 007°03'0 0.0
2017-Sep-14 16:58N 43°32' E 007°03'0 0.0
2017-Sep-14 16:28N 43°32' E 007°03'0 0.1
2017-Sep-14 15:58N 43°32' E 007°03'0 0.1
2017-Sep-14 15:25N 43°32' E 007°03'0 0.0
2017-Sep-14 14:55N 43°32' E 007°03'0 0.0
2017-Sep-14 14:28N 43°32' E 007°03'0 0.1
2017-Sep-14 13:52N 43°32' E 007°03'0 0.1
2017-Sep-14 13:28N 43°32' E 007°03'0 0.1
2017-Sep-14 12:58N 43°32' E 007°03'0 0.5
2017-Sep-14 12:30N 43°32' E 007°03'1 0.0
2017-Sep-13 10:51N 43°33' E 007°05'3 9.5
2017-Sep-13 10:31N 43°30' E 007°03'5 9.2
2017-Sep-13 10:01N 43°31' E 006°57'0 0.7
2017-Sep-13 09:30N 43°31' E 006°57'0 0.0
2017-Sep-13 09:00N 43°31' E 006°57'0 0.0
2017-Sep-13 08:31N 43°31' E 006°57'0 0.0
2017-Sep-13 08:00N 43°31' E 006°57'2 4.2
2017-Sep-13 07:30N 43°30' E 006°60'4 7.8
2017-Sep-13 07:00N 43°31' E 007°05'2 3.5
2017-Sep-13 06:30N 43°33' E 007°04'0 0.0
2017-Sep-13 05:29N 43°33' E 007°03'0 0.0
2017-Sep-13 05:01N 43°33' E 007°04'0 0.0
2017-Sep-13 04:31N 43°33' E 007°04'0 0.0
2017-Sep-13 04:01N 43°33' E 007°04'0 0.0
2017-Sep-13 03:30N 43°33' E 007°03'0 0.1
2017-Sep-13 02:58N 43°33' E 007°04'0 0.1
2017-Sep-13 02:26N 43°33' E 007°04'0 0.0
2017-Sep-13 01:55N 43°33' E 007°04'0 0.0
2017-Sep-13 01:30N 43°33' E 007°04'0 0.0
2017-Sep-12 22:06N 43°33' E 007°04'0 0.2
2017-Sep-12 21:57N 43°33' E 007°04'0 0.0
2017-Sep-12 21:26N 43°33' E 007°04'0 0.0
2017-Sep-12 20:56N 43°33' E 007°04'0 0.0
2017-Sep-12 20:18N 43°33' E 007°04'0 0.0
2017-Sep-12 19:59N 43°33' E 007°04'0 0.0
2017-Sep-12 19:30N 43°33' E 007°04'0 0.1
2017-Sep-12 19:00N 43°33' E 007°04'0 0.0
2017-Sep-12 18:31N 43°33' E 007°04'0 0.0
2017-Sep-12 18:00N 43°33' E 007°04'0 0.0
2017-Sep-12 17:31N 43°33' E 007°04'0 0.1
2017-Sep-12 17:00N 43°33' E 007°04'0 0.0
2017-Sep-12 16:27N 43°33' E 007°04'0 0.0
2017-Sep-12 15:37N 43°33' E 007°04'0 0.0
2017-Sep-12 15:30N 43°33' E 007°04'0 0.0
2017-Sep-12 14:52N 43°33' E 007°04'0 0.0
2017-Sep-12 14:21N 43°33' E 007°04'0 0.0
2017-Sep-12 13:54N 43°33' E 007°04'0 0.0
2017-Sep-12 13:26N 43°33' E 007°04'0 0.0
2017-Sep-12 12:59N 43°33' E 007°04'0 0.0
2017-Sep-12 12:30N 43°33' E 007°04'0 0.0
2017-Sep-12 11:53N 43°33' E 007°04'0 0.0
2017-Sep-12 11:28N 43°33' E 007°04'0 0.0
2017-Sep-12 11:00N 43°33' E 007°04'0 0.0
2017-Sep-12 09:32N 43°33' E 007°04'0 0.1
2017-Sep-12 09:17N 43°33' E 007°04'0 0.0
2017-Sep-12 08:57N 43°33' E 007°04'0 0.0
2017-Sep-12 08:30N 43°33' E 007°04'0 0.1
2017-Sep-12 07:59N 43°33' E 007°04'0 0.0
2017-Sep-12 07:29N 43°33' E 007°04'0 0.0
2017-Sep-12 06:56N 43°33' E 007°04'0 0.0
2017-Sep-12 06:28N 43°33' E 007°04'0 0.0
2017-Sep-12 05:59N 43°33' E 007°04'0 0.0
2017-Sep-12 05:27N 43°33' E 007°04'0 0.0
2017-Sep-12 05:00N 43°33' E 007°04'0 0.0
2017-Sep-12 04:30N 43°33' E 007°04'0 0.0
2017-Sep-12 04:00N 43°33' E 007°04'0 0.0
2017-Sep-12 03:30N 43°33' E 007°04'0 0.1
2017-Sep-12 03:00N 43°33' E 007°04'0 0.0
2017-Sep-12 02:29N 43°33' E 007°04'0 0.0
2017-Sep-12 02:00N 43°33' E 007°04'0 0.0
2017-Sep-12 01:31N 43°33' E 007°04'0 0.0
2017-Sep-12 01:00N 43°33' E 007°04'0 0.0
2017-Sep-12 00:30N 43°33' E 007°04'0 0.1
2017-Sep-12 00:00N 43°33' E 007°04'0 0.0
2017-Sep-11 23:30N 43°33' E 007°04'0 0.0
2017-Sep-11 23:01N 43°33' E 007°04'0 0.1
2017-Sep-11 22:29N 43°33' E 007°04'0 0.0
2017-Sep-11 22:01N 43°33' E 007°04'0 0.0
2017-Sep-11 21:31N 43°33' E 007°04'0 0.0
2017-Sep-11 21:01N 43°33' E 007°04'0 0.1
2017-Sep-11 20:31N 43°33' E 007°04'2 3.9
2017-Sep-11 19:58N 43°34' E 007°06'0 0.1
2017-Sep-11 19:31N 43°34' E 007°06'0 0.0
2017-Sep-11 19:00N 43°34' E 007°06'0 0.2
2017-Sep-11 18:20N 43°34' E 007°06'0 0.0
2017-Sep-11 17:40N 43°34' E 007°06'0 0.0
2017-Sep-11 17:30N 43°34' E 007°06'0 0.0
2017-Sep-11 15:27N 43°34' E 007°06'0 0.0
2017-Sep-11 14:49N 43°34' E 007°06'0 0.0
2017-Sep-11 14:27N 43°34' E 007°06'  
Track history (hours):
 
Tides and Currents Weather Stations Pressure Air Temp Water Temp Dewpoint Dewpoint Depression Visibility Wind Speed Wind Dir Waves Ship Positions

Lady A

Last reported at 2017-Sep-21 14:17 UTC. Time now 2017-Sep-24 05:13 UTC.
Position N 43°33' E 007°04'.

Length 55 m; draft 4.2 m.

Type: Ship. MMSI: 235112535.

Date/timePositionNaut miles runAvg speedWind from/ knotsBaromVisibWave heightAir tempDewpointWater temp
2017-Sep-21 14:17N 43°33' E 007°04'  
2017-Sep-17 08:09N 43°33' E 007°04'1 7.6
2017-Sep-17 08:00N 43°32' E 007°03'0 0.2
2017-Sep-17 07:24N 43°32' E 007°03'0 0.0
2017-Sep-17 06:57N 43°32' E 007°03'0 0.1
2017-Sep-17 06:30N 43°32' E 007°03'0 0.1
2017-Sep-17 06:00N 43°32' E 007°03'0 0.0
2017-Sep-17 05:30N 43°32' E 007°03'0 0.0
2017-Sep-17 04:57N 43°32' E 007°03'0 0.0
2017-Sep-17 04:30N 43°32' E 007°03'0 0.0
2017-Sep-17 04:00N 43°32' E 007°03'0 0.0
2017-Sep-17 03:30N 43°32' E 007°03'0 0.1
2017-Sep-17 03:00N 43°32' E 007°03'0 0.1
2017-Sep-17 02:30N 43°32' E 007°03'0 0.0
2017-Sep-17 02:00N 43°32' E 007°03'0 0.0
2017-Sep-17 01:30N 43°32' E 007°03'0 0.1
2017-Sep-17 01:00N 43°32' E 007°03'0 0.1
2017-Sep-17 00:30N 43°32' E 007°03'0 0.0
2017-Sep-17 00:00N 43°32' E 007°03'0 0.1
2017-Sep-16 23:30N 43°32' E 007°03'0 0.0
2017-Sep-16 23:00N 43°32' E 007°03'0 0.0
2017-Sep-16 22:30N 43°32' E 007°03'0 0.0
2017-Sep-16 22:00N 43°32' E 007°03'0 0.0
2017-Sep-16 21:30N 43°32' E 007°03'0 0.0
2017-Sep-16 21:00N 43°32' E 007°03'0 0.0
2017-Sep-16 20:30N 43°32' E 007°03'0 0.0
2017-Sep-16 20:00N 43°32' E 007°03'0 0.1
2017-Sep-16 19:27N 43°32' E 007°03'0 0.0
2017-Sep-16 18:54N 43°32' E 007°03'0 0.0
2017-Sep-16 18:24N 43°32' E 007°03'0 0.1
2017-Sep-16 17:54N 43°32' E 007°03'0 0.0
2017-Sep-16 17:24N 43°32' E 007°03'0 0.0
2017-Sep-16 16:57N 43°32' E 007°03'0 0.0
2017-Sep-16 16:27N 43°32' E 007°03'0 0.0
2017-Sep-16 15:57N 43°32' E 007°03'0 0.0
2017-Sep-16 15:27N 43°32' E 007°03'0 0.1
2017-Sep-16 14:57N 43°32' E 007°03'0 0.2
2017-Sep-16 14:30N 43°32' E 007°03'3 2.2
2017-Sep-16 13:14N 43°34' E 007°06'0 0.0
2017-Sep-15 16:45N 43°33' E 007°06'2 8.9
2017-Sep-15 16:30N 43°32' E 007°03'0 0.4
2017-Sep-15 15:55N 43°32' E 007°03'0 0.0
2017-Sep-15 15:25N 43°32' E 007°03'0 0.0
2017-Sep-15 14:58N 43°32' E 007°03'0 0.0
2017-Sep-15 14:28N 43°32' E 007°03'0 0.0
2017-Sep-15 13:58N 43°32' E 007°03'0 0.1
2017-Sep-15 13:28N 43°32' E 007°03'0 0.1
2017-Sep-15 12:58N 43°32' E 007°03'0 0.0
2017-Sep-15 12:28N 43°32' E 007°03'0 0.0
2017-Sep-15 11:58N 43°32' E 007°03'0 0.0
2017-Sep-15 11:28N 43°32' E 007°03'0 0.0
2017-Sep-15 10:58N 43°32' E 007°03'0 0.0
2017-Sep-15 10:28N 43°32' E 007°03'0 0.0
2017-Sep-15 09:58N 43°32' E 007°03'0 0.0
2017-Sep-15 09:28N 43°32' E 007°03'0 0.0
2017-Sep-15 08:58N 43°32' E 007°03'0 0.0
2017-Sep-15 08:28N 43°32' E 007°03'0 0.0
2017-Sep-15 07:58N 43°32' E 007°03'0 0.0
2017-Sep-15 07:28N 43°32' E 007°03'0 0.1
2017-Sep-15 06:58N 43°32' E 007°03'0 0.0
2017-Sep-15 06:25N 43°32' E 007°03'0 0.0
2017-Sep-15 05:52N 43°32' E 007°03'0 0.0
2017-Sep-15 05:28N 43°32' E 007°03'0 0.0
2017-Sep-15 04:55N 43°32' E 007°03'0 0.0
2017-Sep-15 04:28N 43°32' E 007°03'0 0.0
2017-Sep-15 03:52N 43°32' E 007°03'0 0.0
2017-Sep-15 03:28N 43°32' E 007°03'0 0.0
2017-Sep-15 02:58N 43°32' E 007°03'0 0.0
2017-Sep-15 02:22N 43°32' E 007°03'0 0.0
2017-Sep-15 01:58N 43°32' E 007°03'0 0.0
2017-Sep-15 01:25N 43°32' E 007°03'0 0.1
2017-Sep-15 00:58N 43°32' E 007°03'0 0.0
2017-Sep-15 00:25N 43°32' E 007°03'0 0.0
2017-Sep-14 23:58N 43°32' E 007°03'0 0.0
2017-Sep-14 23:28N 43°32' E 007°03'0 0.0
2017-Sep-14 22:58N 43°32' E 007°03'0 0.0
2017-Sep-14 22:28N 43°32' E 007°03'0 0.0
2017-Sep-14 21:58N 43°32' E 007°03'0 0.0
2017-Sep-14 21:28N 43°32' E 007°03'0 0.0
2017-Sep-14 20:58N 43°32' E 007°03'0 0.0
2017-Sep-14 20:28N 43°32' E 007°03'0 0.0
2017-Sep-14 19:58N 43°32' E 007°03'0 0.1
2017-Sep-14 19:28N 43°32' E 007°03'0 0.0
2017-Sep-14 18:58N 43°32' E 007°03'0 0.0
2017-Sep-14 18:28N 43°32' E 007°03'0 0.0
2017-Sep-14 17:58N 43°32' E 007°03'0 0.1
2017-Sep-14 17:22N 43°32' E 007°03'0 0.0
2017-Sep-14 16:58N 43°32' E 007°03'0 0.0
2017-Sep-14 16:28N 43°32' E 007°03'0 0.1
2017-Sep-14 15:58N 43°32' E 007°03'0 0.1
2017-Sep-14 15:25N 43°32' E 007°03'0 0.0
2017-Sep-14 14:55N 43°32' E 007°03'0 0.0
2017-Sep-14 14:28N 43°32' E 007°03'0 0.1
2017-Sep-14 13:52N 43°32' E 007°03'0 0.1
2017-Sep-14 13:28N 43°32' E 007°03'0 0.1
2017-Sep-14 12:58N 43°32' E 007°03'0 0.5
2017-Sep-14 12:30N 43°32' E 007°03'1 0.0
2017-Sep-13 10:51N 43°33' E 007°05'3 9.5
2017-Sep-13 10:31N 43°30' E 007°03'5 9.2
2017-Sep-13 10:01N 43°31' E 006°57'0 0.7
2017-Sep-13 09:30N 43°31' E 006°57'0 0.0
2017-Sep-13 09:00N 43°31' E 006°57'0 0.0
2017-Sep-13 08:31N 43°31' E 006°57'0 0.0
2017-Sep-13 08:00N 43°31' E 006°57'2 4.2
2017-Sep-13 07:30N 43°30' E 006°60'4 7.8
2017-Sep-13 07:00N 43°31' E 007°05'2 3.5
2017-Sep-13 06:30N 43°33' E 007°04'0 0.0
2017-Sep-13 05:29N 43°33' E 007°03'0 0.0
2017-Sep-13 05:01N 43°33' E 007°04'0 0.0
2017-Sep-13 04:31N 43°33' E 007°04'0 0.0
2017-Sep-13 04:01N 43°33' E 007°04'0 0.0
2017-Sep-13 03:30N 43°33' E 007°03'0 0.1
2017-Sep-13 02:58N 43°33' E 007°04'0 0.1
2017-Sep-13 02:26N 43°33' E 007°04'0 0.0
2017-Sep-13 01:55N 43°33' E 007°04'0 0.0
2017-Sep-13 01:30N 43°33' E 007°04'0 0.0
2017-Sep-12 22:06N 43°33' E 007°04'0 0.2
2017-Sep-12 21:57N 43°33' E 007°04'0 0.0
2017-Sep-12 21:26N 43°33' E 007°04'0 0.0
2017-Sep-12 20:56N 43°33' E 007°04'0 0.0
2017-Sep-12 20:18N 43°33' E 007°04'0 0.0
2017-Sep-12 19:59N 43°33' E 007°04'0 0.0
2017-Sep-12 19:30N 43°33' E 007°04'0 0.1
2017-Sep-12 19:00N 43°33' E 007°04'0 0.0
2017-Sep-12 18:31N 43°33' E 007°04'0 0.0
2017-Sep-12 18:00N 43°33' E 007°04'0 0.0
2017-Sep-12 17:31N 43°33' E 007°04'0 0.1
2017-Sep-12 17:00N 43°33' E 007°04'0 0.0
2017-Sep-12 16:27N 43°33' E 007°04'0 0.0
2017-Sep-12 15:37N 43°33' E 007°04'0 0.0
2017-Sep-12 15:30N 43°33' E 007°04'0 0.0
2017-Sep-12 14:52N 43°33' E 007°04'0 0.0
2017-Sep-12 14:21N 43°33' E 007°04'0 0.0
2017-Sep-12 13:54N 43°33' E 007°04'0 0.0
2017-Sep-12 13:26N 43°33' E 007°04'0 0.0
2017-Sep-12 12:59N 43°33' E 007°04'0 0.0
2017-Sep-12 12:30N 43°33' E 007°04'0 0.0
2017-Sep-12 11:53N 43°33' E 007°04'0 0.0
2017-Sep-12 11:28N 43°33' E 007°04'0 0.0
2017-Sep-12 11:00N 43°33' E 007°04'0 0.0
2017-Sep-12 09:32N 43°33' E 007°04'0 0.1
2017-Sep-12 09:17N 43°33' E 007°04'0 0.0
2017-Sep-12 08:57N 43°33' E 007°04'0 0.0
2017-Sep-12 08:30N 43°33' E 007°04'0 0.1
2017-Sep-12 07:59N 43°33' E 007°04'0 0.0
2017-Sep-12 07:29N 43°33' E 007°04'0 0.0
2017-Sep-12 06:56N 43°33' E 007°04'0 0.0
2017-Sep-12 06:28N 43°33' E 007°04'0 0.0
2017-Sep-12 05:59N 43°33' E 007°04'0 0.0
2017-Sep-12 05:27N 43°33' E 007°04'0 0.0
2017-Sep-12 05:00N 43°33' E 007°04'0 0.0
2017-Sep-12 04:30N 43°33' E 007°04'0 0.0
2017-Sep-12 04:00N 43°33' E 007°04'0 0.0
2017-Sep-12 03:30N 43°33' E 007°04'0 0.1
2017-Sep-12 03:00N 43°33' E 007°04'0 0.0
2017-Sep-12 02:29N 43°33' E 007°04'0 0.0
2017-Sep-12 02:00N 43°33' E 007°04'0 0.0
2017-Sep-12 01:31N 43°33' E 007°04'0 0.0
2017-Sep-12 01:00N 43°33' E 007°04'0 0.0
2017-Sep-12 00:30N 43°33' E 007°04'0 0.1
2017-Sep-12 00:00N 43°33' E 007°04'0 0.0
2017-Sep-11 23:30N 43°33' E 007°04'0 0.0
2017-Sep-11 23:01N 43°33' E 007°04'0 0.1
2017-Sep-11 22:29N 43°33' E 007°04'0 0.0
2017-Sep-11 22:01N 43°33' E 007°04'0 0.0
2017-Sep-11 21:31N 43°33' E 007°04'0 0.0
2017-Sep-11 21:01N 43°33' E 007°04'0 0.1
2017-Sep-11 20:31N 43°33' E 007°04'2 3.9
2017-Sep-11 19:58N 43°34' E 007°06'0 0.1
2017-Sep-11 19:31N 43°34' E 007°06'0 0.0
2017-Sep-11 19:00N 43°34' E 007°06'0 0.2
2017-Sep-11 18:20N 43°34' E 007°06'0 0.0
2017-Sep-11 17:40N 43°34' E 007°06'0 0.0
2017-Sep-11 17:30N 43°34' E 007°06'0 0.0
2017-Sep-11 15:27N 43°34' E 007°06'0 0.0
2017-Sep-11 14:49N 43°34' E 007°06'0 0.0
2017-Sep-11 14:27N 43°34' E 007°06'  

Dump ship's entire track history